Time;durP1;ratioP1;P1;durP2;ratioP2;P2;SDS_P1;SDS_P2;PMS_P1;PMS_P2;Temp;Humidity;BMP_temperature;BMP_pressure;BME280_temperature;BME280_humidity;BME280_pressure;Samples;Min_cycle;Max_cycle;Signal;HPM_P1;HPM_P2
2023/04/12 00:01:38;;;;;;;0.00;0.00;;;;;;;5.41;100.00;98570.13;5838429;24;20098;-82
2023/04/12 00:08:03;;;;;;;0.00;0.00;;;;;;;5.48;100.00;98572.56;6043459;23;20044;-82
2023/04/12 00:17:18;;;;;;;0.00;0.00;;;;;;;5.63;100.00;98590.66;6001708;23;20490;-81
2023/04/12 00:20:04;;;;;;;0.00;0.00;;;;;;;5.75;100.00;98601.19;5977670;23;20044;-81
2023/04/12 00:23:14;;;;;;;;;;;;;;;;;;;;;
2023/04/12 00:26:01;;;;;;;0.10;0.10;;;;;;;5.68;100.00;98592.53;6245023;22;20095;-81
2023/04/12 00:28:49;;;;;;;0.00;0.00;;;;;;;5.49;100.00;98595.06;6180101;22;19999;-81
2023/04/12 00:31:38;;;;;;;;;;;;;;;;;;;;;
2023/04/12 00:34:12;;;;;;;0.00;0.00;;;;;;;5.28;100.00;98599.75;6121783;23;20089;-82
2023/04/12 00:37:05;;;;;;;;;;;;;;;;;;;;;
2023/04/12 00:39:50;;;;;;;;;;;;;;;;;;;;;
2023/04/12 00:42:45;;;;;;;0.08;0.08;;;;;;;4.97;100.00;98557.28;6127111;23;20488;-83
2023/04/12 00:48:52;;;;;;;;;;;;;;;5.27;100.00;98596.25;6100719;23;20014;-83
2023/04/12 00:52:02;;;;;;;0.00;0.00;;;;;;;5.23;100.00;98592.44;6140479;23;19905;-82
2023/04/12 00:55:07;;;;;;;0.00;0.00;;;;;;;5.04;100.00;98574.06;6029481;23;20066;-82
2023/04/12 01:01:09;;;;;;;0.00;0.00;;;;;;;5.07;100.00;98578.94;5946721;23;19913;-83
2023/04/12 01:04:00;;;;;;;0.00;0.00;;;;;;;5.04;100.00;98584.09;5971308;24;20068;-82
2023/04/12 01:06:56;;;;;;;;;;;;;;;;;;;;;
2023/04/12 01:13:14;;;;;;;0.00;0.00;;;;;;;5.04;100.00;98617.41;6090682;23;20017;-81
2023/04/12 01:19:56;;;;;;;0.00;0.00;;;;;;;5.03;100.00;98604.94;6046271;23;20015;-81
2023/04/12 01:23:05;;;;;;;;;;;;;;;;;;;;;
2023/04/12 01:26:30;;;;;;;;;;;;;;;;;;;;;
2023/04/12 01:32:51;;;;;;;;;;;;;;;;;;;;;
2023/04/12 01:35:48;;;;;;;0.00;0.00;;;;;;;4.47;100.00;98534.63;6300966;22;20395;-81
2023/04/12 01:42:38;;;;;;;;;;;;;;;;;;;;;
2023/04/12 01:45:13;;;;;;;0.00;0.00;;;;;;;4.42;100.00;98567.91;6147115;23;20092;-81
2023/04/12 01:48:05;;;;;;;0.00;0.00;;;;;;;4.21;100.00;98542.75;6124172;23;20010;-80
2023/04/12 01:50:55;;;;;;;0.00;0.00;;;;;;;4.35;100.00;98589.84;6274333;22;20003;-81
2023/04/12 01:54:11;;;;;;;;;;;;;;;;;;;;;
2023/04/12 01:57:11;;;;;;;0.00;0.00;;;;;;;3.99;100.00;98554.63;6273086;22;20110;-82
2023/04/12 01:59:47;;;;;;;0.00;0.00;;;;;;;3.96;100.00;98566.00;6275051;22;20333;-82
2023/04/12 02:05:35;;;;;;;0.00;0.00;;;;;;;3.74;100.00;98552.69;6295822;22;20007;-81
2023/04/12 02:08:02;;;;;;;0.00;0.00;;;;;;;3.70;100.00;98550.81;6276784;22;20086;-81
2023/04/12 02:11:29;;;;;;;0.00;0.00;;;;;;;3.65;100.00;98560.53;6242552;22;20436;-82
2023/04/12 02:17:39;;;;;;;0.00;0.00;;;;;;;3.37;100.00;98531.22;6025136;23;20014;-82
2023/04/12 02:20:58;;;;;;;;;;;;;;;;;;;;;
2023/04/12 02:26:53;;;;;;;0.00;0.00;;;;;;;3.26;100.00;98562.81;6068213;23;20069;-81
2023/04/12 02:29:24;;;;;;;0.00;0.00;;;;;;;3.11;100.00;98548.16;6058305;23;20409;-80
2023/04/12 02:32:42;;;;;;;0.00;0.00;;;;;;;3.08;100.00;98551.38;6115638;23;20085;-82
2023/04/12 02:35:36;;;;;;;0.00;0.00;;;;;;;2.88;100.00;98519.69;6226393;22;20082;-81
2023/04/12 02:38:30;;;;;;;0.00;0.00;;;;;;;2.90;100.00;98533.72;6272576;22;20011;-81
2023/04/12 02:41:49;;;;;;;0.00;0.00;;;;;;;2.72;100.00;98520.69;6251815;22;20106;-81
2023/04/12 02:44:46;;;;;;;0.00;0.00;;;;;;;2.80;100.00;98539.06;6236195;22;20042;-80
2023/04/12 02:47:39;;;;;;;0.00;0.00;;;;;;;2.84;100.00;98545.56;6265662;22;20090;-82
2023/04/12 02:50:20;;;;;;;0.00;0.00;;;;;;;2.72;100.00;98526.09;6272073;22;20393;-80
2023/04/12 02:52:46;;;;;;;0.00;0.00;;;;;;;2.72;100.00;98534.19;6241500;22;20540;-79
2023/04/12 02:59:06;;;;;;;0.00;0.00;;;;;;;2.54;100.00;98506.53;6172851;23;20005;-81
2023/04/12 03:11:22;;;;;;;0.00;0.00;;;;;;;2.55;100.00;98494.66;6177259;23;20113;-80
2023/04/12 03:13:59;;;;;;;0.00;0.00;;;;;;;2.49;100.00;98479.50;6124914;23;20009;-82
2023/04/12 03:16:42;;;;;;;;;;;;;;;;;;;;;
2023/04/12 03:19:41;;;;;;;;;;;;;;;;;;;;;
2023/04/12 03:22:55;;;;;;;;;;;;;;;;;;;;;
2023/04/12 03:26:22;;;;;;;;;;;;;;;;;;;;;
2023/04/12 03:29:09;;;;;;;0.00;0.00;;;;;;;2.09;100.00;98456.59;6285545;22;20006;-81
2023/04/12 03:31:58;;;;;;;0.00;0.00;;;;;;;2.14;100.00;98462.03;6259908;22;20015;-81
2023/04/12 03:34:56;;;;;;;0.00;0.00;;;;;;;2.20;100.00;98479.84;6237720;22;20107;-81
2023/04/12 03:37:46;;;;;;;0.00;0.00;;;;;;;2.07;100.00;98448.78;6263790;22;20058;-80
2023/04/12 03:40:37;;;;;;;0.00;0.00;;;;;;;2.15;100.00;98452.88;6247751;22;20074;-81
2023/04/12 03:43:09;;;;;;;0.00;0.00;;;;;;;2.21;100.00;98451.03;6228468;22;20035;-81
2023/04/12 03:46:06;;;;;;;0.10;0.10;;;;;;;2.21;100.00;98446.44;6241479;22;20078;-81
2023/04/12 03:48:36;;;;;;;0.00;0.00;;;;;;;2.43;100.00;98442.78;6177831;23;20005;-80
2023/04/12 03:51:06;;;;;;;0.00;0.00;;;;;;;2.46;100.00;98447.66;6119996;23;20103;-79
2023/04/12 03:53:44;;;;;;;0.00;0.00;;;;;;;2.53;100.00;98432.06;6196255;22;20086;-83
2023/04/12 04:00:18;;;;;;;0.00;0.00;;;;;;;2.70;100.00;98452.63;6229474;22;20004;-79
2023/04/12 04:05:53;;;;;;;0.03;0.03;;;;;;;2.74;100.00;98426.75;6246522;22;20004;-78
2023/04/12 04:08:32;;;;;;;;;;;;;;;;;;;;;
2023/04/12 04:10:59;;;;;;;0.00;0.00;;;;;;;2.91;100.00;98442.75;6243906;22;20078;-79
2023/04/12 04:13:51;;;;;;;0.00;0.00;;;;;;;3.03;100.00;98429.03;6239006;22;20054;-77
2023/04/12 04:16:32;;;;;;;;;;;;;;;;;;;;;
2023/04/12 04:19:03;;;;;;;0.00;0.00;;;;;;;2.89;100.00;98437.63;6268333;22;20086;-80
2023/04/12 04:21:52;;;;;;;0.00;0.00;;;;;;;2.85;100.00;98431.13;6240337;22;20011;-80
2023/04/12 04:24:33;;;;;;;0.00;0.00;;;;;;;3.00;100.00;98424.16;6259207;22;20050;-80
2023/04/12 04:27:14;;;;;;;0.00;0.00;;;;;;;3.06;100.00;98433.91;6273202;22;20021;-80
2023/04/12 04:29:54;;;;;;;0.00;0.00;;;;;;;3.12;100.00;98432.81;6226568;22;20024;-80
2023/04/12 04:32:52;;;;;;;0.10;0.10;;;;;;;3.27;100.00;98446.38;6243212;22;20014;-81
2023/04/12 04:35:26;;;;;;;0.03;0.03;;;;;;;3.25;100.00;98432.31;6248222;22;20015;-80
2023/04/12 04:37:59;;;;;;;0.00;0.00;;;;;;;3.21;100.00;98415.00;6294763;22;19999;-81
2023/04/12 04:41:03;;;;;;;0.10;0.10;;;;;;;3.29;100.00;98428.00;6249664;22;20011;-80
2023/04/12 04:43:34;;;;;;;0.10;0.10;;;;;;;3.40;100.00;98423.44;6300003;22;20011;-79
2023/04/12 04:46:12;;;;;;;0.00;0.00;;;;;;;3.48;100.00;98427.50;6268739;22;20438;-80
2023/04/12 04:48:58;;;;;;;0.00;0.00;;;;;;;3.58;100.00;98429.41;6246020;22;20014;-79
2023/04/12 04:51:29;;;;;;;0.10;0.10;;;;;;;3.82;100.00;98454.03;6266918;22;19999;-81
2023/04/12 04:54:22;;;;;;;0.00;0.00;;;;;;;3.91;100.00;98438.06;6273237;22;20448;-79
2023/04/12 04:57:06;;;;;;;0.00;0.00;;;;;;;3.96;100.00;98438.88;6238697;22;20042;-79
2023/04/12 04:59:43;;;;;;;0.00;0.00;;;;;;;3.86;100.00;98424.56;6268893;22;20018;-81
2023/04/12 05:02:25;;;;;;;0.00;0.00;;;;;;;3.92;100.00;98434.28;6248342;22;20060;-80
2023/04/12 05:05:01;;;;;;;0.00;0.00;;;;;;;3.70;100.00;98421.03;6248630;22;20069;-79
2023/04/12 05:08:03;;;;;;;0.00;0.00;;;;;;;3.64;100.00;98412.91;6248922;22;20011;-79
2023/04/12 05:10:33;;;;;;;0.00;0.00;;;;;;;3.55;100.00;98419.13;6155771;22;20001;-80
2023/04/12 05:13:30;;;;;;;0.00;0.00;;;;;;;3.42;100.00;98420.47;6245036;22;20004;-84
2023/04/12 05:16:38;;;;;;;0.00;0.00;;;;;;;3.20;100.00;98413.41;6283789;22;20031;-81
2023/04/12 06:10:48;;;;;;;0.03;0.03;;;;;;;3.14;100.00;98360.47;6150714;23;20036;-78
2023/04/12 06:13:14;;;;;;;0.00;0.00;;;;;;;3.24;100.00;98359.66;6146362;22;20016;-80
2023/04/12 06:15:58;;;;;;;0.00;0.00;;;;;;;3.41;100.00;98364.81;6244016;22;20019;-78
2023/04/12 06:18:33;;;;;;;0.03;0.03;;;;;;;3.44;100.00;98348.06;6234044;22;20011;-81
2023/04/12 06:21:13;;;;;;;0.00;0.00;;;;;;;3.40;100.00;98341.56;6207674;22;20007;-79
2023/04/12 06:23:50;;;;;;;0.00;0.00;;;;;;;3.46;100.00;98356.69;6224617;22;20019;-79
2023/04/12 06:26:18;;;;;;;0.00;0.00;;;;;;;3.50;100.00;98368.59;6249897;22;20022;-79
2023/04/12 06:29:05;;;;;;;0.10;0.10;;;;;;;3.38;100.00;98351.84;6246598;22;20537;-79
2023/04/12 06:31:42;;;;;;;0.00;0.00;;;;;;;3.44;100.00;98350.75;6303826;22;19999;-81
2023/04/12 06:34:11;;;;;;;0.10;0.10;;;;;;;3.44;100.00;98348.06;6270799;22;20011;-82
2023/04/12 06:39:26;;;;;;;0.00;0.00;;;;;;;3.52;100.00;98323.19;6278501;22;20057;-82
2023/04/12 06:42:13;;;;;;;0.00;0.00;;;;;;;3.98;100.00;98350.16;6275495;22;20011;-82
2023/04/12 06:44:44;;;;;;;0.05;0.05;;;;;;;4.18;100.00;98364.75;6243173;22;20699;-82
2023/04/12 06:47:23;;;;;;;;;;;;;;;;;;;;;
2023/04/12 06:50:21;;;;;;;0.00;0.00;;;;;;;4.67;100.00;98369.44;6296520;22;20078;-83
2023/04/12 06:53:17;;;;;;;0.00;0.00;;;;;;;5.00;100.00;98367.09;6268779;22;20009;-79
2023/04/12 06:55:57;;;;;;;0.00;0.00;;;;;;;5.11;100.00;98350.78;6303219;22;19995;-79
2023/04/12 06:58:30;;;;;;;0.00;0.00;;;;;;;5.10;100.00;98360.81;6273202;22;20014;-82
2023/04/12 07:01:31;;;;;;;0.00;0.00;;;;;;;5.27;100.00;98344.19;6270958;22;20011;-85
2023/04/12 07:04:03;;;;;;;0.00;0.00;;;;;;;5.31;100.00;98345.22;6251584;22;20011;-78
2023/04/12 07:06:36;;;;;;;0.00;0.00;;;;;;;5.30;100.00;98350.94;6267854;22;20018;-79
2023/04/12 07:09:03;;;;;;;0.00;0.00;;;;;;;5.30;100.00;98372.63;6272614;22;20114;-83
2023/04/12 07:11:44;;;;;;;0.00;0.00;;;;;;;5.17;100.00;98357.78;6217796;22;20007;-79
2023/04/12 07:14:26;;;;;;;;;;;;;;;;;;;;;
2023/04/12 07:17:00;;;;;;;0.00;0.00;;;;;;;5.25;100.00;98351.78;6297364;22;20079;-78
2023/04/12 07:19:38;;;;;;;0.00;0.00;;;;;;;5.02;100.00;98343.28;6273896;22;20007;-80
2023/04/12 07:22:13;;;;;;;0.00;0.00;;;;;;;5.00;100.00;98353.56;6268667;22;20027;-78
2023/04/12 07:24:51;;;;;;;0.00;0.00;;;;;;;5.11;100.00;98345.38;6255385;22;20110;-78
2023/04/12 07:27:17;;;;;;;0.05;0.05;;;;;;;5.12;100.00;98333.44;6239040;22;20012;-78
2023/04/12 07:29:54;;;;;;;0.00;0.00;;;;;;;5.23;100.00;98337.72;6267520;22;20419;-79
2023/04/12 07:32:39;;;;;;;0.10;0.10;;;;;;;5.34;100.00;98344.66;6211874;22;20379;-79
2023/04/12 07:35:20;;;;;;;0.00;0.00;;;;;;;5.36;100.00;98347.91;6217695;22;20026;-79
2023/04/12 07:41:41;;;;;;;;;;;;;;;;;;;;;
2023/04/12 07:48:29;;;;;;;;;;;;;;;;;;;;;
2023/04/12 08:02:23;;;;;;;0.00;0.00;;;;;;;6.20;100.00;98327.91;5942035;23;20027;-78
2023/04/12 08:04:50;;;;;;;0.00;0.00;;;;;;;6.13;94.45;98307.66;5949799;23;20312;-79
2023/04/12 08:07:26;;;;;;;0.00;0.00;;;;;;;6.39;95.07;98333.41;6010073;23;20014;-79
2023/04/12 08:10:01;;;;;;;0.00;0.00;;;;;;;6.94;94.29;98313.94;6072637;23;20018;-81
2023/04/12 08:12:27;;;;;;;0.00;0.00;;;;;;;7.19;88.21;98308.44;6046542;23;20072;-81
2023/04/12 08:14:59;;;;;;;0.00;0.00;;;;;;;7.02;86.24;98320.63;6065863;23;20092;-79
2023/04/12 08:17:28;;;;;;;0.00;0.00;;;;;;;6.80;89.78;98278.56;6185506;22;20018;-80
2023/04/12 08:20:14;;;;;;;0.00;0.00;;;;;;;6.94;91.85;98296.84;6216557;22;20014;-78
2023/04/12 08:23:07;;;;;;;0.10;0.10;;;;;;;7.95;93.30;98300.09;6194078;22;20012;-77
2023/04/12 08:25:58;;;;;;;0.00;0.00;;;;;;;9.37;87.01;98280.19;6193985;22;20019;-79
2023/04/12 08:28:27;;;;;;;0.00;0.00;;;;;;;10.83;79.53;98307.69;6237359;22;20010;-78
2023/04/12 08:31:25;;;;;;;0.00;0.00;;;;;;;11.92;77.07;98313.25;6193387;22;20338;-79
2023/04/12 08:33:58;;;;;;;0.00;0.00;;;;;;;12.56;74.03;98297.88;6225425;22;20053;-78
2023/04/12 08:36:33;;;;;;;0.00;0.00;;;;;;;13.91;73.22;98294.19;6242041;22;20035;-79
2023/04/12 08:39:26;;;;;;;0.00;0.00;;;;;;;14.81;63.63;98264.13;6237996;22;20008;-80
2023/04/12 08:41:59;;;;;;;0.00;0.00;;;;;;;14.62;62.34;98290.28;6239736;22;20509;-79
2023/04/12 08:44:50;;;;;;;0.00;0.00;;;;;;;14.51;63.03;98269.84;6244164;22;20011;-79
2023/04/12 08:47:28;;;;;;;0.00;0.00;;;;;;;14.96;59.27;98243.34;6240087;22;20011;-78
2023/04/12 08:49:57;;;;;;;0.00;0.00;;;;;;;15.22;63.36;98255.88;6245222;22;20374;-80
2023/04/12 08:52:23;;;;;;;0.00;0.00;;;;;;;15.76;61.28;98263.63;6238668;22;19995;-78
2023/04/12 08:54:49;;;;;;;0.00;0.00;;;;;;;16.26;56.82;98263.34;6219468;22;20015;-80
2023/04/12 08:57:23;;;;;;;0.00;0.00;;;;;;;16.97;57.37;98258.69;6267222;22;20053;-79
2023/04/12 09:00:02;;;;;;;0.00;0.00;;;;;;;18.12;59.91;98273.94;6245521;22;20010;-79
2023/04/12 09:02:41;;;;;;;0.00;0.00;;;;;;;19.11;50.20;98247.34;6242273;22;20011;-80
2023/04/12 09:05:14;;;;;;;0.00;0.00;;;;;;;17.36;47.49;98291.88;6244927;22;20004;-79
2023/04/12 09:07:47;;;;;;;0.00;0.00;;;;;;;14.87;57.22;98259.97;6216635;22;20114;-79
2023/04/12 09:10:36;;;;;;;0.00;0.00;;;;;;;15.05;57.42;98235.72;6246431;22;20035;-80
2023/04/12 09:13:14;;;;;;;0.00;0.00;;;;;;;16.82;56.82;98241.00;6268497;22;20336;-79
2023/04/12 09:16:05;;;;;;;0.00;0.00;;;;;;;17.73;56.20;98225.06;6244972;22;20003;-79
2023/04/12 09:18:47;;;;;;;0.00;0.00;;;;;;;17.59;50.02;98244.91;6243957;22;20437;-80
2023/04/12 09:21:13;;;;;;;0.00;0.00;;;;;;;16.30;55.85;98234.69;6243984;22;20090;-79
2023/04/12 09:23:39;;;;;;;0.00;0.00;;;;;;;15.09;59.65;98236.63;6248741;22;20031;-81
2023/04/12 09:26:37;;;;;;;0.00;0.00;;;;;;;15.50;55.42;98292.44;6273380;22;20011;-80
2023/04/12 09:29:25;;;;;;;0.00;0.00;;;;;;;15.64;54.65;98197.59;6264098;22;20062;-80
2023/04/12 09:32:08;;;;;;;0.00;0.00;;;;;;;17.33;56.57;98214.44;6276579;22;19995;-79
2023/04/12 09:34:56;;;;;;;0.00;0.00;;;;;;;17.78;46.57;98230.28;6271692;22;19999;-80
2023/04/12 09:38:04;;;;;;;0.00;0.00;;;;;;;16.65;47.37;98177.94;6270896;22;20359;-79
2023/04/12 09:40:42;;;;;;;0.00;0.00;;;;;;;17.23;53.71;98168.84;6276031;22;20137;-80
2023/04/12 09:43:09;;;;;;;0.00;0.00;;;;;;;17.51;50.61;98196.25;6274497;22;20057;-80
2023/04/12 09:45:41;;;;;;;0.00;0.00;;;;;;;16.44;51.95;98158.94;6303685;22;20003;-80
2023/04/12 09:48:27;;;;;;;0.00;0.00;;;;;;;16.49;53.06;98150.41;6245608;22;20007;-80
2023/04/12 09:50:58;;;;;;;0.00;0.00;;;;;;;20.05;50.01;98161.22;6271962;22;20010;-80
2023/04/12 09:53:48;;;;;;;0.00;0.00;;;;;;;19.36;46.58;98150.66;6274689;22;19999;-80
2023/04/12 09:56:28;;;;;;;0.00;0.00;;;;;;;17.72;50.10;98120.41;6276034;22;20010;-78
2023/04/12 09:59:10;;;;;;;0.00;0.00;;;;;;;16.46;54.03;98113.31;6281390;22;20007;-79
2023/04/12 10:01:43;;;;;;;0.00;0.00;;;;;;;16.26;58.88;98136.50;6252970;22;20011;-78
2023/04/12 10:04:11;;;;;;;0.00;0.00;;;;;;;16.22;52.33;98092.28;6253441;22;20023;-79
2023/04/12 10:06:37;;;;;;;0.00;0.00;;;;;;;16.99;54.40;98107.28;6272079;22;20034;-79
2023/04/12 10:09:07;;;;;;;0.00;0.00;;;;;;;17.07;51.20;98099.94;6248111;22;20064;-80
2023/04/12 10:11:58;;;;;;;0.00;0.00;;;;;;;15.77;51.78;98083.41;6297799;22;19992;-80
2023/04/12 10:14:32;;;;;;;0.00;0.00;;;;;;;14.86;54.62;98062.22;6258124;22;20003;-80
2023/04/12 10:17:03;;;;;;;0.00;0.00;;;;;;;14.70;58.62;98065.72;6276504;22;20003;-83
2023/04/12 10:19:38;;;;;;;0.00;0.00;;;;;;;14.34;56.18;98074.88;6276726;22;20303;-81
2023/04/12 10:22:11;;;;;;;0.00;0.00;;;;;;;13.33;55.09;98072.56;6248118;22;20128;-81
2023/04/12 10:24:51;;;;;;;;;;;;;;;;;;;;;
2023/04/12 10:27:31;;;;;;;0.00;0.00;;;;;;;8.70;77.26;98063.75;6303729;22;20087;-83
2023/04/12 10:30:21;;;;;;;0.00;0.00;;;;;;;7.80;85.09;98070.72;6273482;22;20398;-79
2023/04/12 10:43:57;;;;;;;;;;;;;;;;;;;;;
2023/04/12 10:47:31;;;;;;;;;;;;;;;;;;;;;
2023/04/12 10:54:34;;;;;;;;;;;;;;;;;;;;;
2023/04/12 11:01:17;;;;;;;0.00;0.00;;;;;;;20.38;41.97;98009.59;5888212;24;20028;-81
2023/04/12 11:04:31;;;;;;;0.00;0.00;;;;;;;18.71;42.63;97964.44;6153480;23;20022;-83
2023/04/12 11:07:10;;;;;;;0.00;0.00;;;;;;;17.50;48.34;97970.84;6101378;23;20816;-82
2023/04/12 11:09:53;;;;;;;0.00;0.00;;;;;;;14.23;54.20;97975.63;6145588;23;20471;-80
2023/04/12 11:12:28;;;;;;;0.00;0.00;;;;;;;10.87;66.74;98011.75;6099864;23;20009;-79
2023/04/12 11:15:28;;;;;;;;;;;;;;;;;;;;;
2023/04/12 11:18:04;;;;;;;0.00;0.00;;;;;;;8.94;81.34;97978.13;6142246;23;20403;-80
2023/04/12 11:20:58;;;;;;;0.00;0.00;;;;;;;8.47;82.32;97924.88;6121800;23;20009;-80
2023/04/12 11:23:46;;;;;;;0.00;0.00;;;;;;;8.59;75.67;97923.47;6170957;22;20019;-81
2023/04/12 11:27:15;;;;;;;0.00;0.00;;;;;;;7.54;84.43;97994.28;6273553;22;20007;-85
2023/04/12 11:29:56;;;;;;;0.00;0.00;;;;;;;6.13;92.35;98028.16;6105712;23;20100;-81
2023/04/12 11:32:52;;;;;;;0.00;0.00;;;;;;;5.70;98.45;97970.16;6118192;23;20013;-83
2023/04/12 11:35:33;;;;;;;0.00;0.00;;;;;;;5.40;100.00;97969.50;6221685;22;20078;-82
2023/04/12 11:38:10;;;;;;;0.00;0.00;;;;;;;5.25;100.00;97939.88;6225402;22;20011;-81
2023/04/12 11:41:17;;;;;;;0.00;0.00;;;;;;;5.06;100.00;97958.81;6220969;22;20042;-80
2023/04/12 11:44:22;;;;;;;0.00;0.00;;;;;;;4.68;100.00;97943.28;6303384;22;19995;-83
2023/04/12 11:47:53;;;;;;;;;;;;;;;;;;;;;
2023/04/12 11:51:00;;;;;;;0.00;0.00;;;;;;;7.18;100.00;97975.22;6201956;22;20094;-82
2023/04/12 11:53:31;;;;;;;0.00;0.00;;;;;;;10.57;100.00;97941.44;6204245;23;20008;-82
2023/04/12 11:56:25;;;;;;;;;;;;;;;;;;;;;
2023/04/12 11:59:00;;;;;;;0.00;0.00;;;;;;;8.90;89.27;97918.75;6211579;23;20096;-84
2023/04/12 12:01:41;;;;;;;0.10;0.10;;;;;;;7.42;96.07;97953.22;6180314;23;20008;-81
2023/04/12 12:04:47;;;;;;;0.00;0.00;;;;;;;6.60;100.00;97890.50;6184396;23;20011;-82
2023/04/12 12:07:27;;;;;;;0.00;0.00;;;;;;;7.40;100.00;97884.75;6180695;23;20005;-83
2023/04/12 12:10:03;;;;;;;0.00;0.00;;;;;;;7.94;100.00;97887.53;6206685;22;20000;-82
2023/04/12 12:45:40;;;;;;;0.00;0.00;;;;;;;16.99;78.56;97877.38;6296967;22;20027;-80
2023/04/12 12:48:14;;;;;;;0.00;0.00;;;;;;;19.86;68.96;97860.00;6245111;22;20102;-80
2023/04/12 12:50:43;;;;;;;0.00;0.00;;;;;;;21.18;60.66;97891.09;6274523;22;20014;-80
2023/04/12 12:53:19;;;;;;;0.00;0.00;;;;;;;20.22;54.45;97859.28;6245006;22;20030;-80
2023/04/12 12:55:45;;;;;;;0.00;0.00;;;;;;;16.77;64.20;97860.44;6249459;22;20011;-79
2023/04/12 12:58:14;;;;;;;0.00;0.00;;;;;;;13.81;69.68;97874.38;6267617;22;20423;-77
2023/04/12 13:01:16;;;;;;;0.00;0.00;;;;;;;11.53;75.24;97855.28;6246427;22;20053;-78
2023/04/12 13:03:54;;;;;;;0.00;0.00;;;;;;;10.17;80.96;97897.94;6273112;22;20011;-77
2023/04/12 13:09:20;;;;;;;0.00;0.00;;;;;;;8.90;85.68;97888.78;6295635;22;20311;-77
2023/04/12 13:12:02;;;;;;;;;;;;;;;;;;;;;
2023/04/12 13:14:59;;;;;;;0.00;0.00;;;;;;;10.00;89.49;97889.78;6268056;22;20086;-80
2023/04/12 13:17:30;;;;;;;0.00;0.00;;;;;;;10.43;83.74;97842.47;6263740;22;20015;-78
2023/04/12 13:20:00;;;;;;;0.00;0.00;;;;;;;9.93;83.92;97844.69;6248651;22;20007;-77
2023/04/12 13:22:46;;;;;;;0.00;0.00;;;;;;;11.26;83.54;97816.41;6268592;22;20014;-79
2023/04/12 13:25:16;;;;;;;0.00;0.00;;;;;;;12.67;77.10;97811.00;6222983;22;20011;-77
2023/04/12 13:27:58;;;;;;;0.00;0.00;;;;;;;13.72;76.45;97814.88;6297676;22;20006;-78
2023/04/12 13:30:47;;;;;;;0.00;0.00;;;;;;;12.22;75.83;97800.97;6275405;22;20002;-78
2023/04/12 13:33:20;;;;;;;0.00;0.00;;;;;;;11.81;79.87;97813.63;6276120;22;20003;-78
2023/04/12 13:35:49;;;;;;;0.00;0.00;;;;;;;11.10;79.45;97818.13;6271335;22;20007;-78
2023/04/12 13:38:18;;;;;;;0.00;0.00;;;;;;;12.99;75.42;97822.19;6249016;22;20007;-78
2023/04/12 13:40:49;;;;;;;0.00;0.00;;;;;;;12.72;72.98;97797.09;6222120;22;20007;-77
2023/04/12 13:43:41;;;;;;;0.00;0.00;;;;;;;11.69;75.67;97779.59;6226260;22;20011;-78
2023/04/12 13:46:12;;;;;;;0.00;0.00;;;;;;;9.23;83.14;97812.03;6205959;22;20099;-79
2023/04/12 13:48:47;;;;;;;0.00;0.00;;;;;;;8.52;93.86;97815.75;6245422;22;20000;-79
2023/04/12 13:51:15;;;;;;;0.00;0.00;;;;;;;9.39;95.97;97759.72;6238746;22;20015;-77
2023/04/12 13:54:00;;;;;;;0.00;0.00;;;;;;;10.22;91.03;97733.94;6242687;22;20011;-77
2023/04/12 13:56:58;;;;;;;0.00;0.00;;;;;;;11.72;86.68;97755.44;6221648;22;20030;-78
2023/04/12 13:59:30;;;;;;;0.00;0.00;;;;;;;11.11;81.72;97771.31;6240848;22;20061;-78
2023/04/12 14:01:59;;;;;;;0.00;0.00;;;;;;;10.09;90.05;97699.44;6245687;22;20011;-80
2023/04/12 14:04:35;;;;;;;0.00;0.00;;;;;;;9.88;89.28;97710.31;6219547;22;20012;-79
2023/04/12 14:07:06;;;;;;;0.00;0.00;;;;;;;10.05;92.66;97698.50;6220765;22;20008;-78
2023/04/12 14:09:58;;;;;;;0.00;0.00;;;;;;;12.11;87.56;97766.94;6245826;22;20007;-79
2023/04/12 14:12:39;;;;;;;0.00;0.00;;;;;;;10.85;84.58;97681.28;6244206;22;20007;-79
2023/04/12 14:15:12;;;;;;;0.00;0.00;;;;;;;9.83;85.79;97659.44;6193472;22;20015;-79
2023/04/12 14:17:41;;;;;;;0.03;0.03;;;;;;;9.44;86.91;97666.81;6220997;22;20031;-78
2023/04/12 14:21:01;;;;;;;;;;;;;;;;;;;;;
2023/04/12 14:23:48;;;;;;;0.00;0.00;;;;;;;9.13;87.53;97662.41;6272301;22;20091;-77
2023/04/12 14:26:27;;;;;;;0.00;0.00;;;;;;;9.02;85.22;97702.00;6220553;22;20011;-78
2023/04/12 14:29:31;;;;;;;0.08;0.08;;;;;;;9.35;84.45;97671.50;6239579;22;20004;-78
2023/04/12 14:32:05;;;;;;;0.00;0.00;;;;;;;10.27;79.01;97679.09;6222492;22;20445;-79
2023/04/12 14:34:37;;;;;;;;;;;;;;;11.98;75.69;97720.38;6240112;22;20011;-77
2023/04/12 14:37:21;;;;;;;0.00;0.00;;;;;;;14.63;65.20;97683.25;6268595;22;20332;-78
2023/04/12 14:40:12;;;;;;;0.00;0.00;;;;;;;15.93;60.79;97718.81;6192279;22;20007;-81
2023/04/12 14:43:09;;;;;;;0.00;0.00;;;;;;;15.60;64.51;97673.34;6241197;22;20439;-82
2023/04/12 14:45:53;;;;;;;;;;;;;;;;;;;;;
2023/04/12 14:48:32;;;;;;;0.00;0.00;;;;;;;14.80;64.15;97666.31;6277404;22;20509;-78
2023/04/12 14:53:56;;;;;;;0.00;0.00;;;;;;;13.25;66.85;97670.06;6285687;22;20034;-79
2023/04/12 14:59:17;;;;;;;0.00;0.00;;;;;;;11.63;70.56;97666.00;6279621;22;20003;-79
2023/04/12 15:01:49;;;;;;;0.00;0.00;;;;;;;10.62;72.80;97662.50;6224412;22;20033;-78
2023/04/12 15:04:15;;;;;;;0.00;0.00;;;;;;;9.60;77.09;97628.88;6276661;22;20255;-78
2023/04/12 15:10:13;;;;;;;0.00;0.00;;;;;;;8.93;83.04;97616.75;6174480;23;20009;-79
2023/04/12 15:12:50;;;;;;;0.00;0.00;;;;;;;9.36;84.63;97626.72;6263773;22;20475;-78
2023/04/12 15:15:31;;;;;;;0.00;0.00;;;;;;;9.99;83.46;97623.38;6245350;22;20014;-80
2023/04/12 15:17:57;;;;;;;0.00;0.00;;;;;;;10.43;81.28;97610.25;6252960;22;20014;-80
2023/04/12 15:20:41;;;;;;;0.00;0.00;;;;;;;12.23;82.03;97638.19;6271105;22;20003;-81
2023/04/12 15:23:19;;;;;;;0.00;0.00;;;;;;;15.70;68.01;97647.94;6303693;22;19999;-79
2023/04/12 15:26:07;;;;;;;;;;;;;;;;;;;;;
2023/04/12 15:28:42;;;;;;;0.00;0.00;;;;;;;14.22;68.96;97639.53;6279401;22;20091;-79
2023/04/12 15:31:45;;;;;;;0.00;0.00;;;;;;;12.38;73.28;97622.97;6297301;22;20406;-81
2023/04/12 15:37:08;;;;;;;0.00;0.00;;;;;;;10.79;74.96;97611.53;6263304;22;20441;-79
2023/04/12 15:39:47;;;;;;;0.00;0.00;;;;;;;10.54;76.79;97625.13;6207186;23;20091;-78
2023/04/12 15:42:16;;;;;;;0.00;0.00;;;;;;;10.31;78.95;97633.59;6212535;23;20012;-81
2023/04/12 15:45:20;;;;;;;0.00;0.00;;;;;;;9.96;80.64;97628.38;6207230;22;20023;-78
2023/04/12 15:47:53;;;;;;;0.00;0.00;;;;;;;9.65;79.79;97634.16;6207512;23;20023;-81
2023/04/12 15:50:42;;;;;;;0.00;0.00;;;;;;;9.25;81.45;97642.63;6190542;23;20008;-81
2023/04/12 15:53:37;;;;;;;0.00;0.00;;;;;;;8.19;91.20;97703.69;6147627;23;20091;-80
2023/04/12 15:56:22;;;;;;;;;;;;;;;;;;;;;
2023/04/12 16:00:07;;;;;;;0.00;0.00;;;;;;;6.03;96.94;97652.81;6153900;23;20092;-81
2023/04/12 16:02:21;;;;;;;;;;;;;;;;;;;;;
2023/04/12 16:05:05;;;;;;;0.00;0.00;;;;;;;4.87;100.00;97685.28;6169869;23;20794;-80
2023/04/12 16:07:39;;;;;;;0.00;0.00;;;;;;;4.85;100.00;97692.91;6178784;23;20013;-79
2023/04/12 16:10:31;;;;;;;0.00;0.00;;;;;;;4.68;100.00;97688.81;6165195;23;20018;-78
2023/04/12 16:13:37;;;;;;;;;;;;;;;;;;;;;
2023/04/12 16:16:25;;;;;;;0.00;0.00;;;;;;;4.16;100.00;97698.75;6219213;23;20087;-78
2023/04/12 16:19:04;;;;;;;0.00;0.00;;;;;;;3.91;100.00;97692.56;6271470;22;19999;-79
2023/04/12 16:21:51;;;;;;;0.00;0.00;;;;;;;3.86;100.00;97705.38;6251790;22;20015;-79
2023/04/12 16:24:27;;;;;;;0.10;0.10;;;;;;;3.76;100.00;97690.06;6274207;22;20173;-79
2023/04/12 16:27:28;;;;;;;0.10;0.10;;;;;;;4.24;100.00;97681.09;6276439;22;20753;-82
2023/04/12 16:30:15;;;;;;;0.10;0.10;;;;;;;5.45;100.00;97704.88;6234513;22;20026;-80
2023/04/12 16:33:38;;;;;;;0.00;0.00;;;;;;;6.54;100.00;97699.75;6300907;22;19995;-83
2023/04/12 16:36:30;;;;;;;0.00;0.00;;;;;;;7.33;100.00;97659.53;6266498;22;20442;-78
2023/04/12 16:39:18;;;;;;;;;;;;;;;;;;;;;
2023/04/12 16:41:55;;;;;;;0.00;0.00;;;;;;;8.96;100.00;97681.50;6278959;22;20082;-81
2023/04/12 16:44:21;;;;;;;0.10;0.10;;;;;;;9.30;100.00;97707.09;6246183;22;20023;-80
2023/04/12 16:47:12;;;;;;;0.00;0.00;;;;;;;8.96;100.00;97697.84;6240946;22;20457;-79
2023/04/12 16:49:53;;;;;;;0.08;0.08;;;;;;;8.65;100.00;97690.66;6244254;22;20050;-79
2023/04/12 16:52:39;;;;;;;0.00;0.00;;;;;;;8.45;100.00;97689.34;6249448;22;20118;-78
2023/04/12 16:55:12;;;;;;;0.00;0.00;;;;;;;8.41;100.00;97713.69;6274603;22;20011;-79
2023/04/12 16:57:54;;;;;;;0.00;0.00;;;;;;;8.08;100.00;97708.63;6273759;22;20010;-81
2023/04/12 17:00:43;;;;;;;0.00;0.00;;;;;;;7.69;100.00;97718.41;6277457;22;20003;-79
2023/04/12 17:04:06;;;;;;;;;;;;;;;;;;;;;
2023/04/12 17:06:57;;;;;;;0.00;0.00;;;;;;;6.85;100.00;97674.59;6299295;22;20078;-80